sensor_id;sensor_type;location;lat;lon;timestamp;P1;durP1;ratioP1;P2;durP2;ratioP2
85038;SDS011;75366;54.588;18.456;2024-02-26T00:04:31;4.00;;;3.30;;
85038;SDS011;75366;54.588;18.456;2024-02-26T00:09:33;6.80;;;5.20;;
85038;SDS011;75366;54.588;18.456;2024-02-26T00:14:38;8.80;;;5.40;;
85038;SDS011;75366;54.588;18.456;2024-02-26T00:19:41;12.90;;;6.90;;
85038;SDS011;75366;54.588;18.456;2024-02-26T00:24:43;12.30;;;8.00;;
85038;SDS011;75366;54.588;18.456;2024-02-26T00:29:44;14.70;;;8.30;;
85038;SDS011;75366;54.588;18.456;2024-02-26T00:34:46;10.60;;;7.00;;
85038;SDS011;75366;54.588;18.456;2024-02-26T00:39:48;14.40;;;7.80;;
85038;SDS011;75366;54.588;18.456;2024-02-26T00:44:49;9.70;;;7.40;;
85038;SDS011;75366;54.588;18.456;2024-02-26T00:49:51;11.60;;;6.00;;
85038;SDS011;75366;54.588;18.456;2024-02-26T00:54:52;9.70;;;6.10;;
85038;SDS011;75366;54.588;18.456;2024-02-26T00:59:54;6.90;;;4.30;;
85038;SDS011;75366;54.588;18.456;2024-02-26T01:04:58;7.70;;;4.90;;
85038;SDS011;75366;54.588;18.456;2024-02-26T01:09:59;8.90;;;5.80;;
85038;SDS011;75366;54.588;18.456;2024-02-26T01:15:01;8.80;;;6.00;;
85038;SDS011;75366;54.588;18.456;2024-02-26T01:20:07;8.70;;;5.30;;
85038;SDS011;75366;54.588;18.456;2024-02-26T01:30:11;8.10;;;5.20;;
85038;SDS011;75366;54.588;18.456;2024-02-26T01:35:13;6.60;;;4.90;;
85038;SDS011;75366;54.588;18.456;2024-02-26T01:40:15;7.70;;;5.00;;
85038;SDS011;75366;54.588;18.456;2024-02-26T01:45:20;5.70;;;4.30;;
85038;SDS011;75366;54.588;18.456;2024-02-26T01:50:25;6.60;;;4.80;;
85038;SDS011;75366;54.588;18.456;2024-02-26T01:55:28;8.40;;;5.00;;
85038;SDS011;75366;54.588;18.456;2024-02-26T02:00:30;7.70;;;5.30;;
85038;SDS011;75366;54.588;18.456;2024-02-26T02:05:33;10.40;;;6.20;;
85038;SDS011;75366;54.588;18.456;2024-02-26T02:10:35;8.90;;;5.30;;
85038;SDS011;75366;54.588;18.456;2024-02-26T02:20:40;8.60;;;5.50;;
85038;SDS011;75366;54.588;18.456;2024-02-26T02:25:42;6.80;;;4.60;;
85038;SDS011;75366;54.588;18.456;2024-02-26T02:30:44;8.40;;;5.90;;
85038;SDS011;75366;54.588;18.456;2024-02-26T02:35:45;13.40;;;6.90;;
85038;SDS011;75366;54.588;18.456;2024-02-26T02:45:50;11.90;;;6.80;;
85038;SDS011;75366;54.588;18.456;2024-02-26T02:50:52;13.50;;;7.60;;
85038;SDS011;75366;54.588;18.456;2024-02-26T02:55:54;11.60;;;8.10;;
85038;SDS011;75366;54.588;18.456;2024-02-26T03:00:56;12.30;;;6.90;;
85038;SDS011;75366;54.588;18.456;2024-02-26T03:05:57;10.50;;;7.20;;
85038;SDS011;75366;54.588;18.456;2024-02-26T03:10:59;11.60;;;7.50;;
85038;SDS011;75366;54.588;18.456;2024-02-26T03:16:04;11.90;;;7.40;;
85038;SDS011;75366;54.588;18.456;2024-02-26T03:21:07;14.90;;;9.00;;
85038;SDS011;75366;54.588;18.456;2024-02-26T03:26:09;16.70;;;9.40;;
85038;SDS011;75366;54.588;18.456;2024-02-26T03:31:14;18.90;;;10.30;;
85038;SDS011;75366;54.588;18.456;2024-02-26T03:36:16;18.50;;;12.00;;
85038;SDS011;75366;54.588;18.456;2024-02-26T03:41:18;18.40;;;10.00;;
85038;SDS011;75366;54.588;18.456;2024-02-26T03:46:19;17.50;;;9.30;;
85038;SDS011;75366;54.588;18.456;2024-02-26T03:51:21;14.30;;;8.40;;
85038;SDS011;75366;54.588;18.456;2024-02-26T03:56:23;17.40;;;8.50;;
85038;SDS011;75366;54.588;18.456;2024-02-26T04:01:46;15.10;;;9.70;;
85038;SDS011;75366;54.588;18.456;2024-02-26T04:06:51;15.30;;;7.90;;
85038;SDS011;75366;54.588;18.456;2024-02-26T04:11:52;16.30;;;9.10;;
85038;SDS011;75366;54.588;18.456;2024-02-26T04:16:54;19.60;;;8.60;;
85038;SDS011;75366;54.588;18.456;2024-02-26T04:21:56;14.10;;;8.90;;
85038;SDS011;75366;54.588;18.456;2024-02-26T04:26:57;14.80;;;8.30;;
85038;SDS011;75366;54.588;18.456;2024-02-26T04:31:59;11.70;;;7.90;;
85038;SDS011;75366;54.588;18.456;2024-02-26T04:37:00;17.20;;;9.60;;
85038;SDS011;75366;54.588;18.456;2024-02-26T04:42:02;14.90;;;9.10;;
85038;SDS011;75366;54.588;18.456;2024-02-26T04:47:05;16.90;;;9.10;;
85038;SDS011;75366;54.588;18.456;2024-02-26T04:52:06;16.20;;;8.60;;
85038;SDS011;75366;54.588;18.456;2024-02-26T04:57:08;13.10;;;9.00;;
85038;SDS011;75366;54.588;18.456;2024-02-26T05:02:09;14.50;;;9.90;;
85038;SDS011;75366;54.588;18.456;2024-02-26T05:07:11;15.90;;;8.60;;
85038;SDS011;75366;54.588;18.456;2024-02-26T05:12:13;14.40;;;9.80;;
85038;SDS011;75366;54.588;18.456;2024-02-26T05:17:15;16.40;;;9.10;;
85038;SDS011;75366;54.588;18.456;2024-02-26T05:22:16;15.70;;;9.60;;
85038;SDS011;75366;54.588;18.456;2024-02-26T05:27:18;15.40;;;9.70;;
85038;SDS011;75366;54.588;18.456;2024-02-26T05:32:21;16.00;;;9.90;;
85038;SDS011;75366;54.588;18.456;2024-02-26T05:37:22;17.80;;;9.50;;
85038;SDS011;75366;54.588;18.456;2024-02-26T05:42:24;18.70;;;9.80;;
85038;SDS011;75366;54.588;18.456;2024-02-26T05:47:25;22.80;;;11.10;;
85038;SDS011;75366;54.588;18.456;2024-02-26T05:52:27;21.40;;;11.40;;
85038;SDS011;75366;54.588;18.456;2024-02-26T05:57:34;16.70;;;10.30;;
85038;SDS011;75366;54.588;18.456;2024-02-26T06:02:36;16.60;;;10.90;;
85038;SDS011;75366;54.588;18.456;2024-02-26T06:07:37;21.90;;;11.50;;
85038;SDS011;75366;54.588;18.456;2024-02-26T06:12:59;17.40;;;10.50;;
85038;SDS011;75366;54.588;18.456;2024-02-26T06:18:09;18.40;;;11.50;;
85038;SDS011;75366;54.588;18.456;2024-02-26T06:23:31;18.60;;;11.00;;
85038;SDS011;75366;54.588;18.456;2024-02-26T06:28:34;19.50;;;11.20;;
85038;SDS011;75366;54.588;18.456;2024-02-26T06:33:37;21.20;;;11.70;;
85038;SDS011;75366;54.588;18.456;2024-02-26T06:38:39;21.90;;;11.90;;
85038;SDS011;75366;54.588;18.456;2024-02-26T06:43:41;19.80;;;10.40;;
85038;SDS011;75366;54.588;18.456;2024-02-26T06:48:42;19.80;;;11.70;;
85038;SDS011;75366;54.588;18.456;2024-02-26T06:53:44;22.70;;;12.60;;
85038;SDS011;75366;54.588;18.456;2024-02-26T06:58:46;19.30;;;11.90;;
85038;SDS011;75366;54.588;18.456;2024-02-26T07:03:48;20.40;;;12.30;;
85038;SDS011;75366;54.588;18.456;2024-02-26T07:08:50;22.70;;;15.70;;
85038;SDS011;75366;54.588;18.456;2024-02-26T07:13:51;67.00;;;35.40;;
85038;SDS011;75366;54.588;18.456;2024-02-26T07:18:53;49.50;;;29.90;;
85038;SDS011;75366;54.588;18.456;2024-02-26T07:23:55;41.30;;;27.30;;
85038;SDS011;75366;54.588;18.456;2024-02-26T07:28:56;45.80;;;26.20;;
85038;SDS011;75366;54.588;18.456;2024-02-26T07:33:58;52.80;;;31.50;;
85038;SDS011;75366;54.588;18.456;2024-02-26T07:39:19;50.20;;;26.10;;
85038;SDS011;75366;54.588;18.456;2024-02-26T07:44:41;36.30;;;22.70;;
85038;SDS011;75366;54.588;18.456;2024-02-26T07:49:48;23.60;;;14.70;;
85038;SDS011;75366;54.588;18.456;2024-02-26T07:54:49;22.90;;;12.80;;
85038;SDS011;75366;54.588;18.456;2024-02-26T08:00:11;25.40;;;14.00;;
85038;SDS011;75366;54.588;18.456;2024-02-26T08:05:33;24.30;;;14.40;;
85038;SDS011;75366;54.588;18.456;2024-02-26T08:10:54;20.60;;;11.60;;
85038;SDS011;75366;54.588;18.456;2024-02-26T08:16:16;22.20;;;13.30;;
85038;SDS011;75366;54.588;18.456;2024-02-26T08:21:20;24.90;;;16.50;;
85038;SDS011;75366;54.588;18.456;2024-02-26T08:26:21;28.80;;;16.00;;
85038;SDS011;75366;54.588;18.456;2024-02-26T08:31:25;23.70;;;14.10;;
85038;SDS011;75366;54.588;18.456;2024-02-26T08:36:26;24.10;;;14.20;;
85038;SDS011;75366;54.588;18.456;2024-02-26T08:41:28;23.60;;;14.20;;
85038;SDS011;75366;54.588;18.456;2024-02-26T08:46:30;23.10;;;12.70;;
85038;SDS011;75366;54.588;18.456;2024-02-26T08:51:31;19.80;;;11.60;;
85038;SDS011;75366;54.588;18.456;2024-02-26T08:56:33;26.10;;;15.40;;
85038;SDS011;75366;54.588;18.456;2024-02-26T09:01:35;24.60;;;14.00;;
85038;SDS011;75366;54.588;18.456;2024-02-26T09:06:37;23.00;;;11.70;;
85038;SDS011;75366;54.588;18.456;2024-02-26T09:11:58;25.50;;;14.20;;
85038;SDS011;75366;54.588;18.456;2024-02-26T09:17:04;26.70;;;17.50;;
85038;SDS011;75366;54.588;18.456;2024-02-26T09:22:07;28.90;;;18.90;;
85038;SDS011;75366;54.588;18.456;2024-02-26T09:27:08;28.30;;;18.10;;
85038;SDS011;75366;54.588;18.456;2024-02-26T09:32:10;34.40;;;20.10;;
85038;SDS011;75366;54.588;18.456;2024-02-26T09:37:12;38.20;;;20.60;;
85038;SDS011;75366;54.588;18.456;2024-02-26T09:42:33;30.70;;;19.30;;
85038;SDS011;75366;54.588;18.456;2024-02-26T09:47:56;33.90;;;19.80;;
85038;SDS011;75366;54.588;18.456;2024-02-26T09:58:04;21.60;;;14.00;;
85038;SDS011;75366;54.588;18.456;2024-02-26T10:03:34;26.00;;;17.70;;
85038;SDS011;75366;54.588;18.456;2024-02-26T10:09:00;28.50;;;17.60;;
85038;SDS011;75366;54.588;18.456;2024-02-26T10:14:22;24.40;;;15.50;;
85038;SDS011;75366;54.588;18.456;2024-02-26T10:19:44;21.00;;;11.60;;
85038;SDS011;75366;54.588;18.456;2024-02-26T10:25:06;15.60;;;9.80;;
85038;SDS011;75366;54.588;18.456;2024-02-26T10:30:27;16.90;;;10.20;;
85038;SDS011;75366;54.588;18.456;2024-02-26T10:35:29;14.00;;;9.50;;
85038;SDS011;75366;54.588;18.456;2024-02-26T10:40:33;14.80;;;9.70;;
85038;SDS011;75366;54.588;18.456;2024-02-26T10:45:34;16.80;;;11.70;;
85038;SDS011;75366;54.588;18.456;2024-02-26T10:50:39;18.60;;;12.00;;
85038;SDS011;75366;54.588;18.456;2024-02-26T11:01:04;14.80;;;10.10;;
85038;SDS011;75366;54.588;18.456;2024-02-26T11:06:26;19.70;;;11.70;;
85038;SDS011;75366;54.588;18.456;2024-02-26T11:11:48;15.00;;;10.10;;
85038;SDS011;75366;54.588;18.456;2024-02-26T11:17:11;14.60;;;9.10;;
85038;SDS011;75366;54.588;18.456;2024-02-26T11:22:14;14.70;;;9.20;;
85038;SDS011;75366;54.588;18.456;2024-02-26T11:27:32;15.90;;;9.60;;
85038;SDS011;75366;54.588;18.456;2024-02-26T11:32:39;15.90;;;9.80;;
85038;SDS011;75366;54.588;18.456;2024-02-26T11:37:40;18.00;;;12.60;;
85038;SDS011;75366;54.588;18.456;2024-02-26T11:42:46;16.40;;;9.90;;
85038;SDS011;75366;54.588;18.456;2024-02-26T11:47:55;16.40;;;10.80;;
85038;SDS011;75366;54.588;18.456;2024-02-26T11:58:21;18.10;;;10.70;;
85038;SDS011;75366;54.588;18.456;2024-02-26T12:03:23;16.80;;;10.70;;
85038;SDS011;75366;54.588;18.456;2024-02-26T12:08:25;13.40;;;9.30;;
85038;SDS011;75366;54.588;18.456;2024-02-26T12:13:31;16.90;;;11.40;;
85038;SDS011;75366;54.588;18.456;2024-02-26T12:18:32;17.70;;;11.90;;
85038;SDS011;75366;54.588;18.456;2024-02-26T12:23:36;16.90;;;10.10;;
85038;SDS011;75366;54.588;18.456;2024-02-26T12:28:37;19.60;;;11.80;;
85038;SDS011;75366;54.588;18.456;2024-02-26T12:33:39;16.60;;;9.20;;
85038;SDS011;75366;54.588;18.456;2024-02-26T12:38:41;18.10;;;10.60;;
85038;SDS011;75366;54.588;18.456;2024-02-26T12:43:42;21.60;;;12.90;;
85038;SDS011;75366;54.588;18.456;2024-02-26T12:48:44;21.90;;;12.50;;
85038;SDS011;75366;54.588;18.456;2024-02-26T12:53:48;21.70;;;12.50;;
85038;SDS011;75366;54.588;18.456;2024-02-26T12:58:53;18.80;;;11.40;;
85038;SDS011;75366;54.588;18.456;2024-02-26T13:03:55;14.50;;;10.00;;
85038;SDS011;75366;54.588;18.456;2024-02-26T13:14:00;16.90;;;11.50;;
85038;SDS011;75366;54.588;18.456;2024-02-26T13:19:08;16.30;;;10.60;;
85038;SDS011;75366;54.588;18.456;2024-02-26T13:24:13;16.90;;;11.20;;
85038;SDS011;75366;54.588;18.456;2024-02-26T13:29:25;16.10;;;11.50;;
85038;SDS011;75366;54.588;18.456;2024-02-26T13:34:31;16.70;;;10.70;;
85038;SDS011;75366;54.588;18.456;2024-02-26T13:39:50;13.00;;;9.00;;
85038;SDS011;75366;54.588;18.456;2024-02-26T13:44:52;14.70;;;10.00;;
85038;SDS011;75366;54.588;18.456;2024-02-26T13:50:13;18.40;;;11.80;;
85038;SDS011;75366;54.588;18.456;2024-02-26T13:55:15;17.20;;;10.90;;
85038;SDS011;75366;54.588;18.456;2024-02-26T14:00:32;12.30;;;9.40;;
85038;SDS011;75366;54.588;18.456;2024-02-26T14:05:36;14.80;;;9.90;;
85038;SDS011;75366;54.588;18.456;2024-02-26T14:10:38;15.60;;;11.20;;
85038;SDS011;75366;54.588;18.456;2024-02-26T14:15:40;16.70;;;10.50;;
85038;SDS011;75366;54.588;18.456;2024-02-26T14:20:42;18.50;;;12.40;;
85038;SDS011;75366;54.588;18.456;2024-02-26T14:26:03;27.40;;;14.80;;
85038;SDS011;75366;54.588;18.456;2024-02-26T14:31:25;17.20;;;10.50;;
85038;SDS011;75366;54.588;18.456;2024-02-26T14:36:48;19.40;;;12.10;;
85038;SDS011;75366;54.588;18.456;2024-02-26T14:47:32;14.70;;;10.20;;
85038;SDS011;75366;54.588;18.456;2024-02-26T14:52:53;17.00;;;10.60;;
85038;SDS011;75366;54.588;18.456;2024-02-26T14:58:15;13.90;;;8.50;;
85038;SDS011;75366;54.588;18.456;2024-02-26T15:03:37;18.10;;;11.60;;
85038;SDS011;75366;54.588;18.456;2024-02-26T15:08:59;17.20;;;11.00;;
85038;SDS011;75366;54.588;18.456;2024-02-26T15:14:01;16.30;;;10.00;;
85038;SDS011;75366;54.588;18.456;2024-02-26T15:19:02;13.50;;;9.70;;
85038;SDS011;75366;54.588;18.456;2024-02-26T15:24:05;11.80;;;8.20;;
85038;SDS011;75366;54.588;18.456;2024-02-26T15:29:09;15.70;;;9.90;;
85038;SDS011;75366;54.588;18.456;2024-02-26T15:34:11;21.80;;;14.10;;
85038;SDS011;75366;54.588;18.456;2024-02-26T15:39:13;21.80;;;13.40;;
85038;SDS011;75366;54.588;18.456;2024-02-26T15:44:36;17.00;;;11.20;;
85038;SDS011;75366;54.588;18.456;2024-02-26T15:49:58;44.40;;;22.90;;
85038;SDS011;75366;54.588;18.456;2024-02-26T15:55:00;38.30;;;20.10;;
85038;SDS011;75366;54.588;18.456;2024-02-26T16:00:02;43.30;;;22.00;;
85038;SDS011;75366;54.588;18.456;2024-02-26T16:05:08;26.90;;;17.00;;
85038;SDS011;75366;54.588;18.456;2024-02-26T16:10:10;25.50;;;14.80;;
85038;SDS011;75366;54.588;18.456;2024-02-26T16:15:32;58.60;;;27.50;;
85038;SDS011;75366;54.588;18.456;2024-02-26T16:20:57;34.90;;;17.30;;
85038;SDS011;75366;54.588;18.456;2024-02-26T16:26:18;24.70;;;15.20;;
85038;SDS011;75366;54.588;18.456;2024-02-26T16:31:40;21.70;;;14.40;;
85038;SDS011;75366;54.588;18.456;2024-02-26T16:37:07;19.40;;;12.20;;
85038;SDS011;75366;54.588;18.456;2024-02-26T16:42:33;24.80;;;14.00;;
85038;SDS011;75366;54.588;18.456;2024-02-26T16:47:55;28.30;;;15.90;;
85038;SDS011;75366;54.588;18.456;2024-02-26T16:53:17;50.70;;;28.40;;
85038;SDS011;75366;54.588;18.456;2024-02-26T16:58:38;54.40;;;26.80;;
85038;SDS011;75366;54.588;18.456;2024-02-26T17:04:00;44.00;;;26.50;;
85038;SDS011;75366;54.588;18.456;2024-02-26T17:09:22;39.50;;;26.00;;
85038;SDS011;75366;54.588;18.456;2024-02-26T17:14:43;59.30;;;32.00;;
85038;SDS011;75366;54.588;18.456;2024-02-26T17:20:05;41.20;;;25.20;;
85038;SDS011;75366;54.588;18.456;2024-02-26T17:25:15;43.50;;;27.80;;
85038;SDS011;75366;54.588;18.456;2024-02-26T17:30:17;56.90;;;35.40;;
85038;SDS011;75366;54.588;18.456;2024-02-26T17:35:19;56.40;;;36.90;;
85038;SDS011;75366;54.588;18.456;2024-02-26T17:40:20;42.50;;;26.80;;
85038;SDS011;75366;54.588;18.456;2024-02-26T17:45:22;37.50;;;24.00;;
85038;SDS011;75366;54.588;18.456;2024-02-26T17:50:25;37.80;;;22.40;;
85038;SDS011;75366;54.588;18.456;2024-02-26T18:00:29;21.70;;;13.80;;
85038;SDS011;75366;54.588;18.456;2024-02-26T18:05:31;21.00;;;14.00;;
85038;SDS011;75366;54.588;18.456;2024-02-26T18:10:32;31.70;;;20.00;;
85038;SDS011;75366;54.588;18.456;2024-02-26T18:15:34;26.60;;;18.80;;
85038;SDS011;75366;54.588;18.456;2024-02-26T18:20:36;31.30;;;19.50;;
85038;SDS011;75366;54.588;18.456;2024-02-26T18:25:40;24.60;;;17.10;;
85038;SDS011;75366;54.588;18.456;2024-02-26T18:30:42;32.30;;;21.40;;
85038;SDS011;75366;54.588;18.456;2024-02-26T18:35:46;29.10;;;19.60;;
85038;SDS011;75366;54.588;18.456;2024-02-26T18:40:48;32.50;;;20.60;;
85038;SDS011;75366;54.588;18.456;2024-02-26T18:45:49;28.90;;;18.40;;
85038;SDS011;75366;54.588;18.456;2024-02-26T18:51:11;22.60;;;12.30;;
85038;SDS011;75366;54.588;18.456;2024-02-26T18:56:32;47.50;;;25.30;;
85038;SDS011;75366;54.588;18.456;2024-02-26T19:01:34;48.90;;;30.30;;
85038;SDS011;75366;54.588;18.456;2024-02-26T19:06:56;53.70;;;33.00;;
85038;SDS011;75366;54.588;18.456;2024-02-26T19:12:20;45.80;;;29.60;;
85038;SDS011;75366;54.588;18.456;2024-02-26T19:17:23;48.40;;;30.20;;
85038;SDS011;75366;54.588;18.456;2024-02-26T19:22:24;42.60;;;28.80;;
85038;SDS011;75366;54.588;18.456;2024-02-26T19:27:26;50.40;;;31.40;;
85038;SDS011;75366;54.588;18.456;2024-02-26T19:32:27;39.40;;;26.90;;
85038;SDS011;75366;54.588;18.456;2024-02-26T19:37:29;62.40;;;33.90;;
85038;SDS011;75366;54.588;18.456;2024-02-26T19:42:30;68.80;;;37.80;;
85038;SDS011;75366;54.588;18.456;2024-02-26T19:47:32;42.70;;;25.00;;
85038;SDS011;75366;54.588;18.456;2024-02-26T19:52:35;41.40;;;21.30;;
85038;SDS011;75366;54.588;18.456;2024-02-26T19:57:37;39.00;;;22.90;;
85038;SDS011;75366;54.588;18.456;2024-02-26T20:02:39;40.80;;;24.70;;
85038;SDS011;75366;54.588;18.456;2024-02-26T20:07:41;41.60;;;24.90;;
85038;SDS011;75366;54.588;18.456;2024-02-26T20:12:43;32.80;;;20.50;;
85038;SDS011;75366;54.588;18.456;2024-02-26T20:17:44;31.50;;;21.70;;
85038;SDS011;75366;54.588;18.456;2024-02-26T20:22:46;26.90;;;19.00;;
85038;SDS011;75366;54.588;18.456;2024-02-26T20:27:47;33.40;;;18.40;;
85038;SDS011;75366;54.588;18.456;2024-02-26T20:32:49;29.10;;;19.60;;
85038;SDS011;75366;54.588;18.456;2024-02-26T20:37:50;34.90;;;20.00;;
85038;SDS011;75366;54.588;18.456;2024-02-26T20:42:52;37.80;;;22.90;;
85038;SDS011;75366;54.588;18.456;2024-02-26T20:47:55;32.80;;;20.50;;
85038;SDS011;75366;54.588;18.456;2024-02-26T20:52:57;36.70;;;22.20;;
85038;SDS011;75366;54.588;18.456;2024-02-26T20:57:59;34.90;;;20.00;;
85038;SDS011;75366;54.588;18.456;2024-02-26T21:03:01;31.00;;;22.00;;
85038;SDS011;75366;54.588;18.456;2024-02-26T21:08:23;46.50;;;26.00;;
85038;SDS011;75366;54.588;18.456;2024-02-26T21:13:45;39.40;;;22.70;;
85038;SDS011;75366;54.588;18.456;2024-02-26T21:19:06;32.30;;;20.10;;
85038;SDS011;75366;54.588;18.456;2024-02-26T21:24:27;35.80;;;20.80;;
85038;SDS011;75366;54.588;18.456;2024-02-26T21:29:49;27.20;;;15.40;;
85038;SDS011;75366;54.588;18.456;2024-02-26T21:35:11;38.20;;;22.60;;
85038;SDS011;75366;54.588;18.456;2024-02-26T21:40:32;35.70;;;22.40;;
85038;SDS011;75366;54.588;18.456;2024-02-26T21:45:54;33.20;;;19.80;;
85038;SDS011;75366;54.588;18.456;2024-02-26T21:51:15;31.30;;;19.20;;
85038;SDS011;75366;54.588;18.456;2024-02-26T21:56:37;33.10;;;16.10;;
85038;SDS011;75366;54.588;18.456;2024-02-26T22:01:59;29.80;;;18.00;;
85038;SDS011;75366;54.588;18.456;2024-02-26T22:07:20;36.20;;;22.30;;
85038;SDS011;75366;54.588;18.456;2024-02-26T22:12:22;32.30;;;20.60;;
85038;SDS011;75366;54.588;18.456;2024-02-26T22:17:43;31.80;;;20.00;;
85038;SDS011;75366;54.588;18.456;2024-02-26T22:23:05;22.10;;;13.70;;
85038;SDS011;75366;54.588;18.456;2024-02-26T22:28:27;27.20;;;15.40;;
85038;SDS011;75366;54.588;18.456;2024-02-26T22:33:28;24.00;;;15.10;;
85038;SDS011;75366;54.588;18.456;2024-02-26T22:38:50;21.40;;;13.50;;
85038;SDS011;75366;54.588;18.456;2024-02-26T22:43:51;21.90;;;12.80;;
85038;SDS011;75366;54.588;18.456;2024-02-26T22:48:53;18.00;;;11.90;;
85038;SDS011;75366;54.588;18.456;2024-02-26T22:53:57;28.20;;;16.60;;
85038;SDS011;75366;54.588;18.456;2024-02-26T22:59:18;16.10;;;10.60;;
85038;SDS011;75366;54.588;18.456;2024-02-26T23:04:40;21.80;;;14.40;;
85038;SDS011;75366;54.588;18.456;2024-02-26T23:09:42;19.30;;;12.00;;
85038;SDS011;75366;54.588;18.456;2024-02-26T23:14:43;16.10;;;10.20;;
85038;SDS011;75366;54.588;18.456;2024-02-26T23:19:45;15.00;;;8.70;;
85038;SDS011;75366;54.588;18.456;2024-02-26T23:24:46;17.60;;;9.70;;
85038;SDS011;75366;54.588;18.456;2024-02-26T23:29:48;15.50;;;9.70;;
85038;SDS011;75366;54.588;18.456;2024-02-26T23:34:49;16.60;;;10.10;;
85038;SDS011;75366;54.588;18.456;2024-02-26T23:39:51;9.20;;;6.50;;
85038;SDS011;75366;54.588;18.456;2024-02-26T23:44:53;9.10;;;6.20;;
85038;SDS011;75366;54.588;18.456;2024-02-26T23:49:55;10.90;;;6.50;;
85038;SDS011;75366;54.588;18.456;2024-02-26T23:54:57;9.40;;;6.30;;
85038;SDS011;75366;54.588;18.456;2024-02-26T23:59:58;11.40;;;7.60;;
